Time;durP1;ratioP1;P1;durP2;ratioP2;P2;SDS_P1;SDS_P2;PMS_P1;PMS_P2;Temp;Humidity;BMP_temperature;BMP_pressure;BME280_temperature;BME280_humidity;BME280_pressure;Samples;Min_cycle;Max_cycle;Signal;HPM_P1;HPM_P2
2021/12/03 00:01:42;;;;;;;47.60;44.70;;;;;;;3.36;100.00;101405.59;1895317;72;938049;-70
2021/12/03 00:04:12;;;;;;;49.43;46.43;;;;;;;3.35;100.00;101398.41;1897637;72;937608;-77
2021/12/03 00:09:57;;;;;;;47.57;44.40;;;;;;;3.26;100.00;101378.63;1912163;74;86037;-78
2021/12/03 00:15:42;;;;;;;49.63;46.43;;;;;;;3.26;100.00;101362.16;1800923;78;86063;-78
2021/12/03 00:21:27;;;;;;;48.93;46.10;;;;;;;3.26;100.00;101360.78;1806791;78;85431;-72
2021/12/03 00:27:11;;;;;;;49.03;46.03;;;;;;;3.30;100.00;101353.77;1942309;72;86654;-72
2021/12/03 00:32:55;;;;;;;47.50;44.40;;;;;;;3.34;100.00;101353.62;1940465;71;40259;-72
2021/12/03 00:38:43;;;;;;;48.60;45.37;;;;;;;3.30;100.00;101336.46;1838045;76;86595;-71
2021/12/03 00:44:30;;;;;;;49.90;46.80;;;;;;;3.38;100.00;101338.38;1882832;74;86604;-78
2021/12/03 00:50:18;;;;;;;48.17;45.03;;;;;;;3.25;100.00;101313.83;1870939;75;86511;-70
2021/12/03 00:56:03;;;;;;;47.40;44.30;;;;;;;3.37;100.00;101313.92;1914865;74;86489;-79
2021/12/03 01:01:47;;;;;;;48.80;45.70;;;;;;;3.33;100.00;101319.03;1942160;71;39604;-71
2021/12/03 01:07:32;;;;;;;46.43;43.33;;;;;;;3.51;100.00;101323.15;1864876;76;86444;-70
2021/12/03 01:13:14;;;;;;;45.30;42.50;;;;;;;3.62;100.00;101305.94;1880789;75;86311;-71
2021/12/03 01:19:00;;;;;;;42.23;39.57;;;;;;;3.71;100.00;101302.88;1925609;73;86620;-78
2021/12/03 01:24:44;;;;;;;41.03;38.53;;;;;;;3.94;100.00;101275.52;1986059;71;40147;-78
2021/12/03 01:30:33;;;;;;;42.13;39.60;;;;;;;3.94;100.00;101274.98;1823929;76;86433;-77
2021/12/03 01:36:18;;;;;;;40.27;37.80;;;;;;;3.89;100.00;101267.16;1866657;75;86510;-72
2021/12/03 01:42:02;;;;;;;42.87;40.47;;;;;;;4.06;100.00;101275.06;1909579;74;86226;-72
2021/12/03 01:47:48;;;;;;;42.20;39.60;;;;;;;4.04;100.00;101262.08;1982668;71;39657;-77
2021/12/03 01:53:35;;;;;;;39.57;37.27;;;;;;;4.16;100.00;101242.34;1831296;76;86954;-78
2021/12/03 01:59:20;;;;;;;41.60;39.20;;;;;;;4.21;100.00;101212.77;1880269;74;86051;-78
2021/12/03 02:05:06;;;;;;;41.03;38.63;;;;;;;4.18;100.00;101220.13;1929058;73;86425;-69
2021/12/03 02:10:50;;;;;;;38.70;36.30;;;;;;;4.29;100.00;101203.66;1929144;71;39441;-77
2021/12/03 02:16:34;;;;;;;38.87;36.77;;;;;;;4.24;100.00;101204.05;1836168;76;86192;-78
2021/12/03 02:22:19;;;;;;;36.70;34.70;;;;;;;4.26;100.00;101188.17;1882919;74;86882;-72
2021/12/03 02:28:03;;;;;;;35.03;33.13;;;;;;;4.33;100.00;101179.27;1907213;74;86254;-78
2021/12/03 02:33:50;;;;;;;36.57;34.57;;;;;;;4.41;100.00;101177.01;1984838;71;39504;-71
2021/12/03 02:39:35;;;;;;;35.17;33.37;;;;;;;4.40;100.00;101162.98;1825282;76;86165;-71
2021/12/03 02:45:20;;;;;;;38.03;36.03;;;;;;;4.39;100.00;101153.58;1869008;75;86334;-77
2021/12/03 02:51:06;;;;;;;39.07;37.07;;;;;;;4.36;100.00;101136.19;1908605;72;86176;-78
2021/12/03 02:56:51;;;;;;;39.97;37.57;;;;;;;4.32;100.00;101122.62;1979334;71;39590;-70
2021/12/03 03:02:35;;;;;;;44.50;42.20;;;;;;;4.38;100.00;101117.52;1850378;75;86130;-78
2021/12/03 03:08:20;;;;;;;44.10;41.70;;;;;;;4.39;100.00;101093.08;1883297;73;86295;-78
2021/12/03 03:14:03;;;;;;;46.90;44.40;;;;;;;4.50;100.00;101081.23;1912963;73;86490;-78
2021/12/03 03:19:45;;;;;;;47.60;45.00;;;;;;;4.39;100.00;101078.80;1975160;71;39802;-78
2021/12/03 03:25:30;;;;;;;49.07;46.27;;;;;;;4.33;100.00;101075.61;1875264;76;86541;-81
2021/12/03 03:31:14;;;;;;;49.63;46.77;;;;;;;4.36;100.00;101070.20;1879486;74;86155;-80
2021/12/03 03:37:02;;;;;;;50.80;47.80;;;;;;;4.31;100.00;101065.41;1919656;72;86046;-79
2021/12/03 03:42:47;;;;;;;51.90;48.70;;;;;;;4.30;100.00;101063.73;1973262;71;39779;-71
2021/12/03 03:48:33;;;;;;;52.10;48.80;;;;;;;4.38;100.00;101057.02;1847696;76;86602;-77
2021/12/03 03:54:24;;;;;;;50.83;47.63;;;;;;;4.25;100.00;101050.38;1809736;77;86110;-70
2021/12/03 04:00:14;;;;;;;51.23;47.87;;;;;;;4.28;100.00;101034.24;1908472;74;86639;-76
2021/12/03 04:05:58;;;;;;;50.57;47.17;;;;;;;4.30;100.00;101023.86;1925695;73;85563;-70
2021/12/03 04:11:41;;;;;;;49.57;46.37;;;;;;;4.17;100.00;101026.84;1802704;78;85408;-77
2021/12/03 04:17:25;;;;;;;50.47;47.20;;;;;;;4.20;100.00;101012.61;1800437;78;85804;-79
2021/12/03 04:23:12;;;;;;;52.80;49.23;;;;;;;4.16;100.00;101003.70;1909562;74;86360;-78
2021/12/03 04:28:56;;;;;;;51.17;47.87;;;;;;;4.28;100.00;100988.06;1815369;78;86713;-79
2021/12/03 04:34:41;;;;;;;49.97;46.57;;;;;;;4.19;100.00;100978.51;1981768;72;86076;-78
2021/12/03 04:40:29;;;;;;;49.93;46.53;;;;;;;4.12;100.00;100964.87;1883371;74;86973;-71
2021/12/03 04:46:13;;;;;;;49.13;45.83;;;;;;;4.14;100.00;100953.11;1888936;73;86315;-76
2021/12/03 04:51:57;;;;;;;48.60;45.40;;;;;;;4.20;100.00;100954.88;1910726;74;85828;-69
2021/12/03 04:57:42;;;;;;;47.97;44.57;;;;;;;4.26;100.00;100948.97;1810377;77;86442;-70
2021/12/03 05:03:29;;;;;;;45.80;42.70;;;;;;;4.08;100.00;100917.80;1874608;74;85803;-71
2021/12/03 05:09:12;;;;;;;45.87;42.70;;;;;;;4.20;100.00;100923.80;1906780;72;86485;-77
2021/12/03 05:14:56;;;;;;;44.97;41.73;;;;;;;4.12;100.00;100905.77;1980794;72;86539;-79
2021/12/03 05:20:40;;;;;;;44.60;41.60;;;;;;;4.20;100.00;100899.05;1834981;75;86328;-77
2021/12/03 05:26:24;;;;;;;44.93;41.83;;;;;;;4.24;100.00;100875.50;1799312;76;86373;-77
2021/12/03 05:32:09;;;;;;;43.43;40.53;;;;;;;4.33;100.00;100862.51;1918634;73;85322;-77
2021/12/03 05:37:55;;;;;;;44.50;41.37;;;;;;;4.31;100.00;100847.34;1983613;71;39656;-79
2021/12/03 05:43:39;;;;;;;42.87;39.93;;;;;;;4.43;100.00;100835.23;1835368;76;86192;-79
2021/12/03 05:49:23;;;;;;;42.80;40.10;;;;;;;4.40;100.00;100827.47;1888067;73;86378;-79
2021/12/03 05:55:11;;;;;;;42.53;39.63;;;;;;;4.42;100.00;100815.67;1875217;75;86036;-77
2021/12/03 06:00:56;;;;;;;43.37;40.57;;;;;;;4.51;100.00;100809.23;1939047;73;86654;-71
2021/12/03 06:06:40;;;;;;;42.67;39.47;;;;;;;4.63;100.00;100801.75;1839609;76;86309;-79
2021/12/03 06:12:22;;;;;;;43.70;40.80;;;;;;;4.71;100.00;100794.47;1869523;75;86462;-70
2021/12/03 06:18:06;;;;;;;43.63;40.63;;;;;;;4.80;100.00;100770.13;1921550;73;86337;-79
2021/12/03 06:23:50;;;;;;;42.40;39.60;;;;;;;4.82;100.00;100764.69;1983190;71;39759;-77
2021/12/03 06:29:35;;;;;;;41.20;38.40;;;;;;;4.93;100.00;100755.51;1971022;71;86510;-77
2021/12/03 06:35:20;;;;;;;41.97;39.17;;;;;;;5.03;100.00;100745.20;1883872;73;86753;-70
2021/12/03 06:41:06;;;;;;;42.13;39.33;;;;;;;5.17;100.00;100745.16;1917475;72;86012;-79
2021/12/03 06:46:53;;;;;;;41.60;39.00;;;;;;;5.32;100.00;100717.00;1984445;71;39538;-79
2021/12/03 06:52:40;;;;;;;40.83;38.13;;;;;;;5.43;100.00;100714.13;1902576;74;86869;-71
2021/12/03 06:58:24;;;;;;;42.07;39.37;;;;;;;5.49;100.00;100708.98;1794444;78;86860;-77
2021/12/03 07:04:09;;;;;;;42.03;39.13;;;;;;;5.49;100.00;100714.49;1915149;74;86289;-76
2021/12/03 07:09:52;;;;;;;40.27;37.77;;;;;;;5.63;100.00;100709.45;1944824;71;40377;-71
2021/12/03 07:15:37;;;;;;;42.30;39.47;;;;;;;5.77;100.00;100694.20;1861292;76;85563;-74
2021/12/03 07:21:21;;;;;;;41.77;38.97;;;;;;;5.88;100.00;100702.89;1880559;73;86676;-71
2021/12/03 07:27:07;;;;;;;40.23;37.57;;;;;;;5.98;100.00;100694.45;1915336;73;86432;-71
2021/12/03 07:32:51;;;;;;;40.07;37.37;;;;;;;6.10;100.00;100695.97;1972381;71;39531;-71
2021/12/03 07:38:36;;;;;;;39.00;36.30;;;;;;;6.35;100.00;100694.01;1830101;76;86620;-71
2021/12/03 07:44:21;;;;;;;41.83;38.97;;;;;;;6.36;100.00;100699.82;1881346;73;86858;-70
2021/12/03 07:50:06;;;;;;;41.00;38.40;;;;;;;6.45;100.00;100698.25;1896953;72;86463;-77
2021/12/03 07:55:52;;;;;;;40.27;37.77;;;;;;;6.58;100.00;100692.31;1948374;71;39442;-77
2021/12/03 08:01:42;;;;;;;39.37;36.77;;;;;;;6.63;100.00;100683.24;1831550;75;86213;-78
2021/12/03 08:07:27;;;;;;;39.83;37.03;;;;;;;6.84;100.00;100681.76;1896926;75;85427;-78
2021/12/03 08:13:10;;;;;;;40.33;37.40;;;;;;;6.93;100.00;100668.27;1910952;73;86559;-71
2021/12/03 08:18:55;;;;;;;39.67;36.93;;;;;;;6.99;100.00;100660.86;1935511;71;39570;-73
2021/12/03 08:24:38;;;;;;;40.27;37.57;;;;;;;7.07;100.00;100644.62;1824935;76;86537;-70
2021/12/03 08:30:27;;;;;;;41.60;39.00;;;;;;;7.25;100.00;100648.86;1902301;74;86626;-77
2021/12/03 08:36:12;;;;;;;39.37;36.77;;;;;;;7.49;100.00;100647.31;1869238;75;85443;-77
2021/12/03 08:41:57;;;;;;;40.53;37.73;;;;;;;7.49;100.00;100645.93;1871587;74;86275;-78
2021/12/03 08:47:44;;;;;;;40.53;37.87;;;;;;;7.50;100.00;100653.13;1906373;74;86395;-73
2021/12/03 08:59:55;;;;;;;41.37;38.67;;;;;;;7.74;100.00;100645.22;1980042;71;40218;-79
2021/12/03 09:05:39;;;;;;;41.57;38.87;;;;;;;7.90;100.00;100646.09;1832983;76;86616;-77
2021/12/03 09:11:24;;;;;;;42.17;39.30;;;;;;;7.92;100.00;100638.33;1833512;77;85845;-79
2021/12/03 09:17:30;;;;;;;42.67;39.87;;;;;;;7.94;100.00;100647.20;1934339;73;85389;-78
2021/12/03 09:23:12;;;;;;;43.30;40.60;;;;;;;7.82;100.00;100639.16;1916932;72;86629;-77
2021/12/03 09:29:01;;;;;;;45.10;41.27;;;;;;;7.70;100.00;100639.38;1971761;71;39472;-72
2021/12/03 09:34:45;;;;;;;45.37;42.03;;;;;;;7.83;100.00;100649.09;1981673;71;39546;-72
2021/12/03 09:40:30;;;;;;;43.43;40.33;;;;;;;7.91;100.00;100627.84;1886169;74;86820;-76
2021/12/03 09:46:18;;;;;;;40.77;37.83;;;;;;;8.04;100.00;100634.79;1879055;74;86109;-72
2021/12/03 09:52:12;;;;;;;39.33;36.43;;;;;;;8.03;100.00;100631.19;1910221;72;86911;-79
2021/12/03 09:58:04;;;;;;;39.53;36.83;;;;;;;8.22;100.00;100630.09;1940116;72;85834;-78
2021/12/03 10:04:01;;;;;;;39.17;36.20;;;;;;;8.35;100.00;100625.42;1979549;71;39706;-75
2021/12/03 10:15:58;;;;;;;40.33;37.50;;;;;;;8.51;100.00;100615.21;1974608;71;39668;-77
2021/12/03 10:22:08;;;;;;;44.17;40.67;;;;;;;8.41;100.00;100602.75;1977378;71;39519;-78
2021/12/03 10:28:02;;;;;;;49.03;44.97;;;;;;;8.42;100.00;100587.81;1845155;75;86569;-72
2021/12/03 10:33:50;;;;;;;48.07;44.03;;;;;;;8.64;100.00;100585.58;1830423;75;86468;-73
2021/12/03 10:39:45;;;;;;;44.00;40.80;;;;;;;8.79;100.00;100591.08;1837641;76;86093;-78
2021/12/03 10:45:38;;;;;;;43.47;40.37;;;;;;;8.97;100.00;100581.35;1824338;75;86393;-76
2021/12/03 10:51:34;;;;;;;42.33;39.40;;;;;;;9.08;100.00;100584.35;1883015;73;86390;-71
2021/12/03 10:57:41;;;;;;;42.13;38.87;;;;;;;9.09;100.00;100579.92;1887284;73;86228;-77
2021/12/03 11:34:28;;;;;;;48.60;44.90;;;;;;;9.78;100.00;100558.80;1983952;71;39603;-78
2021/12/03 12:16:14;;;;;;;52.67;48.97;;;;;;;9.84;100.00;100561.83;1913542;73;86615;-77
2021/12/03 14:01:34;;;;;;;54.80;51.00;;;;;;;9.88;100.00;100418.66;1941724;72;86840;-81
2021/12/03 14:44:14;;;;;;;52.47;48.57;;;;;;;9.81;100.00;100413.43;1938555;71;39558;-71
2021/12/03 14:56:12;;;;;;;54.90;50.90;;;;;;;9.57;100.00;100422.23;1901728;72;85503;-75
2021/12/03 15:02:00;;;;;;;53.23;49.10;;;;;;;9.58;100.00;100427.48;1924925;73;86715;-71
2021/12/03 15:07:44;;;;;;;56.13;52.13;;;;;;;9.70;100.00;100408.27;1893282;74;85514;-81
2021/12/03 15:31:55;;;;;;;62.40;58.20;;;;;;;9.51;100.00;100389.55;1937783;70;39672;-76
2021/12/03 16:08:10;;;;;;;61.10;56.83;;;;;;;9.41;100.00;100356.36;1839088;76;86216;-77
2021/12/03 16:14:01;;;;;;;64.23;59.73;;;;;;;9.30;100.00;100348.42;1976891;71;39510;-73
2021/12/03 16:26:04;;;;;;;62.27;57.60;;;;;;;9.20;100.00;100360.99;1891664;74;85437;-77
2021/12/03 16:44:21;;;;;;;63.87;59.17;;;;;;;8.85;100.00;100346.26;1909233;74;86423;-78
2021/12/03 16:56:05;;;;;;;57.10;52.80;;;;;;;8.84;100.00;100341.00;1920752;73;86589;-71
2021/12/03 17:01:52;;;;;;;65.13;60.63;;;;;;;8.70;100.00;100338.02;1977572;71;39566;-72
2021/12/03 17:20:42;;;;;;;62.33;57.50;;;;;;;8.62;100.00;100306.78;1925187;73;86721;-73
2021/12/03 17:45:03;;;;;;;58.97;53.97;;;;;;;8.62;100.00;100306.23;1879888;74;86706;-78
2021/12/03 17:50:43;;;;;;;61.17;56.17;;;;;;;8.60;100.00;100296.58;1858056;76;86478;-77
2021/12/03 17:56:27;;;;;;;62.17;57.07;;;;;;;8.57;100.00;100287.44;1805690;78;86093;-78
2021/12/03 18:02:23;;;;;;;65.30;59.90;;;;;;;8.60;100.00;100273.84;1952879;72;86285;-77
2021/12/03 18:08:14;;;;;;;58.87;54.07;;;;;;;8.57;100.00;100264.73;1805395;78;86231;-73
2021/12/03 18:14:34;;;;;;;62.97;57.77;;;;;;;8.53;100.00;100265.04;1837525;77;86599;-74
2021/12/03 18:56:17;;;;;;;74.37;67.90;;;;;;;8.33;100.00;100235.28;1840540;76;85794;-74
2021/12/03 19:02:05;;;;;;;71.97;65.57;;;;;;;8.38;100.00;100229.72;1909137;72;86361;-72
2021/12/03 19:08:01;;;;;;;68.40;62.53;;;;;;;8.30;100.00;100228.36;1974993;71;39408;-71
2021/12/03 19:13:38;;;;;;;68.93;62.83;;;;;;;8.26;100.00;100233.36;1826256;75;85931;-73
2021/12/03 19:19:23;;;;;;;66.90;61.00;;;;;;;8.18;100.00;100231.99;1867815;73;87255;-72
2021/12/03 19:25:08;;;;;;;71.80;65.23;;;;;;;8.40;100.00;100226.92;1918892;73;86268;-73
2021/12/03 19:30:53;;;;;;;74.27;67.10;;;;;;;8.53;100.00;100214.39;1981294;71;39661;-73
2021/12/03 19:36:40;;;;;;;72.33;65.67;;;;;;;8.43;100.00;100208.94;1836707;75;85647;-72
2021/12/03 19:42:30;;;;;;;71.27;64.77;;;;;;;8.34;100.00;100214.25;1795941;78;86257;-71
2021/12/03 19:48:13;;;;;;;73.53;66.97;;;;;;;8.24;100.00;100197.67;1871051;75;86425;-75
2021/12/03 19:53:59;;;;;;;69.23;63.03;;;;;;;8.14;100.00;100195.78;1930303;72;86360;-68
2021/12/03 19:59:44;;;;;;;69.37;63.10;;;;;;;8.00;100.00;100184.27;1984478;71;39656;-73
2021/12/03 20:05:28;;;;;;;69.47;63.13;;;;;;;8.01;100.00;100179.81;1902983;74;86420;-74
2021/12/03 20:11:11;;;;;;;69.00;62.77;;;;;;;8.08;100.00;100172.60;1848493;76;86721;-75
2021/12/03 20:16:59;;;;;;;73.00;66.57;;;;;;;7.97;100.00;100159.92;1913146;73;86452;-71
2021/12/03 20:22:48;;;;;;;77.47;71.03;;;;;;;8.12;100.00;100144.64;1890867;74;86583;-75
2021/12/03 20:28:37;;;;;;;74.33;68.53;;;;;;;7.98;100.00;100131.16;1835332;75;86757;-74
2021/12/03 20:34:46;;;;;;;77.57;71.10;;;;;;;7.82;100.00;100135.13;1883769;73;85555;-73
2021/12/03 20:40:24;;;;;;;79.40;72.60;;;;;;;7.96;100.00;100124.52;1885778;73;86263;-74
2021/12/03 20:46:32;;;;;;;75.23;69.07;;;;;;;7.93;100.00;100114.05;1912618;74;86447;-73
2021/12/03 20:52:30;;;;;;;78.43;71.47;;;;;;;7.95;100.00;100106.30;1870532;76;85639;-73
2021/12/03 20:58:51;;;;;;;79.20;72.37;;;;;;;7.54;100.00;100096.01;1919760;73;86332;-75
2021/12/03 21:10:08;;;;;;;77.30;70.80;;;;;;;7.12;100.00;100097.01;1934911;73;85555;-78
2021/12/03 21:22:13;;;;;;;79.17;72.60;;;;;;;7.15;100.00;100101.95;1911463;74;86553;-73
2021/12/03 21:28:02;;;;;;;81.97;75.27;;;;;;;7.07;100.00;100096.47;1913982;73;86075;-75
2021/12/03 21:40:06;;;;;;;81.37;74.23;;;;;;;6.46;100.00;100096.31;1982816;70;39687;-74
2021/12/03 21:45:47;;;;;;;80.53;73.07;;;;;;;6.43;100.00;100088.02;1986173;71;39599;-72
2021/12/03 21:51:33;;;;;;;78.37;71.67;;;;;;;6.62;100.00;100085.53;1970521;72;86550;-73
2021/12/03 21:57:18;;;;;;;83.57;76.30;;;;;;;6.71;100.00;100073.66;1883639;73;86683;-72
2021/12/03 22:03:03;;;;;;;90.93;72.07;;;;;;;6.48;100.00;100093.53;1923811;73;86394;-71
2021/12/03 22:08:46;;;;;;;78.63;71.27;;;;;;;6.27;100.00;100085.83;1980206;71;40239;-73
2021/12/03 22:14:33;;;;;;;76.43;69.13;;;;;;;6.27;100.00;100071.20;1830568;76;86465;-74
2021/12/03 22:20:16;;;;;;;76.77;69.37;;;;;;;6.36;100.00;100072.31;1864882;75;86259;-72
2021/12/03 22:26:00;;;;;;;76.60;66.63;;;;;;;6.53;100.00;100073.40;1907193;74;86287;-72
2021/12/03 22:31:44;;;;;;;70.63;63.87;;;;;;;6.53;100.00;100070.64;1982966;71;39473;-75
2021/12/03 22:37:29;;;;;;;69.57;63.50;;;;;;;6.60;100.00;100057.37;1837442;76;86769;-75
2021/12/03 22:43:14;;;;;;;72.40;65.80;;;;;;;6.64;100.00;100052.95;1882323;75;86460;-73
2021/12/03 22:49:17;;;;;;;70.73;64.37;;;;;;;6.79;100.00;100058.45;1923889;71;86745;-74
2021/12/03 22:55:01;;;;;;;74.97;68.50;;;;;;;6.90;100.00;100057.86;1909687;73;86364;-73
2021/12/03 23:00:56;;;;;;;70.13;63.97;;;;;;;6.85;100.00;100053.17;1973253;71;39437;-73
2021/12/03 23:06:41;;;;;;;76.73;69.00;;;;;;;6.97;100.00;100048.20;1811296;77;85739;-73
2021/12/03 23:12:24;;;;;;;69.07;62.57;;;;;;;6.72;100.00;100037.20;1793796;78;86447;-73
2021/12/03 23:18:11;;;;;;;71.77;64.97;;;;;;;6.53;100.00;100030.64;1880258;74;86338;-73
2021/12/03 23:23:55;;;;;;;78.67;70.10;;;;;;;6.66;100.00;100030.06;1816996;78;86143;-73
2021/12/03 23:29:40;;;;;;;106.70;81.73;;;;;;;6.78;100.00;100022.30;1971624;69;86116;-73
2021/12/03 23:35:25;;;;;;;116.30;83.37;;;;;;;6.93;100.00;100006.25;1807728;78;86245;-74
2021/12/03 23:41:09;;;;;;;111.60;78.43;;;;;;;7.00;100.00;100010.36;1926927;73;86641;-74
2021/12/03 23:46:53;;;;;;;122.77;79.70;;;;;;;7.01;100.00;99997.38;1980180;71;40098;-73
2021/12/03 23:52:37;;;;;;;104.33;78.20;;;;;;;7.17;100.00;99989.30;1813087;76;86465;-73
2021/12/03 23:58:23;;;;;;;100.23;80.73;;;;;;;7.22;100.00;99992.86;1806750;78;86395;-74
